Time;durP1;ratioP1;P1;durP2;ratioP2;P2;SDS_P1;SDS_P2;PMS_P1;PMS_P2;Temp;Humidity;BMP_temperature;BMP_pressure;BME280_temperature;BME280_humidity;BME280_pressure;Samples;Min_cycle;Max_cycle;Signal;HPM_P1;HPM_P2
2023/04/13 00:00:14;;;;;;;2.10;1.20;;;;;;;;;;7391566;19;20016;-73
2023/04/13 00:02:40;;;;;;;0.93;0.80;;;;;;;;;;7391447;19;20005;-73
2023/04/13 00:05:08;;;;;;;1.55;0.95;;;;;;;;;;7393138;19;20021;-72
2023/04/13 00:07:37;;;;;;;1.95;1.00;;;;;;;;;;7393080;19;19998;-72
2023/04/13 00:10:07;;;;;;;1.48;0.90;;;;;;;;;;7391888;19;20014;-71
2023/04/13 00:12:33;;;;;;;0.88;0.70;;;;;;;;;;7392221;19;20005;-73
2023/04/13 00:14:59;;;;;;;2.03;0.80;;;;;;;;;;7394279;19;20069;-72
2023/04/13 00:17:25;;;;;;;1.58;0.80;;;;;;;;;;7392649;19;20012;-73
2023/04/13 00:19:52;;;;;;;1.77;0.90;;;;;;;;;;7392083;19;20603;-72
2023/04/13 00:22:20;;;;;;;0.95;0.95;;;;;;;;;;7391264;19;19995;-72
2023/04/13 00:24:46;;;;;;;2.13;1.00;;;;;;;;;;7392492;19;20043;-73
2023/04/13 00:27:13;;;;;;;1.25;0.85;;;;;;;;;;7392650;19;20515;-71
2023/04/13 00:29:38;;;;;;;2.78;0.98;;;;;;;;;;7390909;19;20010;-73
2023/04/13 00:32:03;;;;;;;1.90;0.98;;;;;;;;;;7390949;19;20039;-73
2023/04/13 00:34:29;;;;;;;2.80;0.90;;;;;;;;;;7392615;19;19999;-73
2023/04/13 00:36:54;;;;;;;1.70;0.95;;;;;;;;;;7392270;19;20005;-72
2023/04/13 00:39:23;;;;;;;2.85;0.85;;;;;;;;;;7392198;19;20002;-72
2023/04/13 00:41:49;;;;;;;1.23;0.93;;;;;;;;;;7388474;19;20022;-72
2023/04/13 00:44:18;;;;;;;1.73;0.98;;;;;;;;;;7392515;19;20017;-73
2023/04/13 00:46:46;;;;;;;1.30;0.98;;;;;;;;;;7392282;19;20007;-73
2023/04/13 00:49:16;;;;;;;2.70;1.00;;;;;;;;;;7392261;19;20007;-73
2023/04/13 00:51:43;;;;;;;2.90;1.10;;;;;;;;;;7388483;19;20007;-73
2023/04/13 00:54:12;;;;;;;2.78;1.15;;;;;;;;;;7391784;19;19998;-73
2023/04/13 00:56:38;;;;;;;4.25;1.05;;;;;;;;;;7391955;19;20025;-72
2023/04/13 00:59:06;;;;;;;1.33;0.82;;;;;;;;;;7392002;19;20066;-72
2023/04/13 01:01:31;;;;;;;2.42;1.08;;;;;;;;;;7386702;19;19998;-72
2023/04/13 01:03:56;;;;;;;1.90;1.00;;;;;;;;;;7391813;19;20014;-73
2023/04/13 01:06:27;;;;;;;3.45;1.50;;;;;;;;;;7391351;19;20025;-72
2023/04/13 01:08:58;;;;;;;2.20;0.93;;;;;;;;;;7391353;19;20010;-73
2023/04/13 01:11:38;;;;;;;2.53;1.17;;;;;;;;;;7388480;19;20010;-71
2023/04/13 01:14:36;;;;;;;2.00;1.00;;;;;;;;;;7391474;19;20538;-72
2023/04/13 01:17:06;;;;;;;4.95;1.42;;;;;;;;;;7390348;19;19999;-72
2023/04/13 01:19:51;;;;;;;1.58;1.00;;;;;;;;;;7392314;19;20017;-72
2023/04/13 01:22:21;;;;;;;4.47;1.13;;;;;;;;;;7389849;19;20013;-72
2023/04/13 01:25:09;;;;;;;1.42;1.02;;;;;;;;;;7391111;19;20071;-72
2023/04/13 01:27:54;;;;;;;3.33;1.00;;;;;;;;;;7391337;19;19998;-72
2023/04/13 01:30:23;;;;;;;2.08;1.00;;;;;;;;;;7389901;19;20139;-71
2023/04/13 01:32:51;;;;;;;3.33;1.00;;;;;;;;;;7393121;19;19998;-73
2023/04/13 01:35:18;;;;;;;4.68;1.52;;;;;;;;;;7391007;19;20010;-72
2023/04/13 01:37:45;;;;;;;3.08;1.08;;;;;;;;;;7394634;19;20002;-72
2023/04/13 01:40:12;;;;;;;3.20;1.15;;;;;;;;;;7388769;19;20010;-73
2023/04/13 01:42:46;;;;;;;2.10;1.20;;;;;;;;;;7386846;19;20452;-73
2023/04/13 01:45:24;;;;;;;3.50;1.38;;;;;;;;;;7390738;19;20003;-72
2023/04/13 01:48:10;;;;;;;4.78;1.00;;;;;;;;;;7388860;19;20400;-72
2023/04/13 01:50:42;;;;;;;4.55;1.33;;;;;;;;;;7392632;19;20521;-72
2023/04/13 01:53:16;;;;;;;4.57;1.25;;;;;;;;;;7390208;19;20500;-72
2023/04/13 01:55:43;;;;;;;2.95;1.02;;;;;;;;;;7389934;19;20002;-72
2023/04/13 01:58:11;;;;;;;1.25;0.90;;;;;;;;;;7389867;19;19998;-72
2023/04/13 02:00:38;;;;;;;3.78;0.90;;;;;;;;;;7387717;19;20363;-72
2023/04/13 02:03:05;;;;;;;2.53;1.50;;;;;;;;;;7388638;19;20009;-72
2023/04/13 02:05:36;;;;;;;4.57;1.00;;;;;;;;;;7390475;19;19999;-71
2023/04/13 02:08:05;;;;;;;;;;;;;;;;;;7390261;19;20026;-71
2023/04/13 02:10:33;;;;;;;6.65;1.17;;;;;;;;;;7387443;19;19928;-71
2023/04/13 02:12:58;;;;;;;5.28;1.02;;;;;;;;;;7387919;19;20002;-72
2023/04/13 02:15:25;;;;;;;4.18;1.00;;;;;;;;;;7389211;19;20111;-72
2023/04/13 02:17:51;;;;;;;1.23;1.10;;;;;;;;;;7391935;19;20006;-72
2023/04/13 02:20:16;;;;;;;4.65;1.08;;;;;;;;;;7385636;19;20003;-72
2023/04/13 02:22:42;;;;;;;6.95;1.20;;;;;;;;;;7388337;19;20399;-72
2023/04/13 02:25:10;;;;;;;4.97;1.15;;;;;;;;;;7388509;19;19999;-72
2023/04/13 02:27:37;;;;;;;2.25;1.10;;;;;;;;;;7389142;19;20002;-71
2023/04/13 02:30:06;;;;;;;3.95;1.30;;;;;;;;;;7388306;19;20054;-70
2023/04/13 02:32:36;;;;;;;3.35;1.10;;;;;;;;;;7388180;19;20416;-73
2023/04/13 02:35:04;;;;;;;4.40;1.10;;;;;;;;;;7388820;19;20009;-72
2023/04/13 02:37:31;;;;;;;1.63;0.85;;;;;;;;;;7388394;19;20448;-71
2023/04/13 02:39:56;;;;;;;7.07;1.40;;;;;;;;;;7387955;19;20010;-70
2023/04/13 02:42:22;;;;;;;5.80;1.10;;;;;;;;;;7386179;19;19999;-70
2023/04/13 02:44:48;;;;;;;2.10;0.85;;;;;;;;;;7386454;19;20003;-72
2023/04/13 02:47:14;;;;;;;2.53;1.20;;;;;;;;;;7388598;19;20019;-71
2023/04/13 02:49:40;;;;;;;1.38;0.88;;;;;;;;;;7386646;19;19999;-71
2023/04/13 02:52:05;;;;;;;5.35;0.85;;;;;;;;;;7387072;19;20003;-71
2023/04/13 02:54:30;;;;;;;6.63;1.40;;;;;;;;;;7387299;19;20018;-71
2023/04/13 02:56:56;;;;;;;3.30;1.15;;;;;;;;;;7402531;19;20006;-70
2023/04/13 02:59:22;;;;;;;1.27;0.80;;;;;;;;;;7395422;19;19997;-71
2023/04/13 03:01:47;;;;;;;3.70;1.42;;;;;;;;;;7385297;19;19998;-72
2023/04/13 03:04:13;;;;;;;5.93;1.38;;;;;;;;;;7387469;19;19995;-72
2023/04/13 03:06:41;;;;;;;5.72;1.33;;;;;;;;;;7387588;19;20015;-70
2023/04/13 03:09:07;;;;;;;5.65;1.05;;;;;;;;;;7385524;19;20840;-71
2023/04/13 03:11:32;;;;;;;5.45;1.02;;;;;;;;;;7383403;19;20007;-71
2023/04/13 03:13:59;;;;;;;3.88;1.17;;;;;;;;;;7387490;19;20531;-71
2023/04/13 03:16:25;;;;;;;6.55;1.25;;;;;;;;;;7387272;19;20079;-72
2023/04/13 03:18:51;;;;;;;4.43;0.95;;;;;;;;;;7387176;19;20448;-71
2023/04/13 03:21:16;;;;;;;6.47;0.88;;;;;;;;;;7384399;19;20010;-72
2023/04/13 03:23:42;;;;;;;7.15;1.33;;;;;;;;;;7384884;19;19999;-72
2023/04/13 03:26:07;;;;;;;5.68;1.13;;;;;;;;;;7387159;19;20010;-71
2023/04/13 03:28:33;;;;;;;2.47;0.85;;;;;;;;;;7387135;19;20002;-71
2023/04/13 03:31:02;;;;;;;2.35;1.20;;;;;;;;;;7384509;19;20005;-72
2023/04/13 03:33:28;;;;;;;1.85;1.05;;;;;;;;;;7386889;19;19999;-71
2023/04/13 03:35:53;;;;;;;2.78;1.33;;;;;;;;;;7386955;19;19999;-70
2023/04/13 03:38:18;;;;;;;6.22;1.38;;;;;;;;;;7386545;19;20022;-71
2023/04/13 03:40:43;;;;;;;2.22;1.13;;;;;;;;;;7385535;19;20260;-71
2023/04/13 03:43:09;;;;;;;5.22;1.20;;;;;;;;;;7384762;19;20002;-71
2023/04/13 03:45:37;;;;;;;6.40;2.10;;;;;;;;;;7387380;19;19995;-71
2023/04/13 03:48:04;;;;;;;5.53;1.70;;;;;;;;;;7386338;19;20023;-71
2023/04/13 03:50:30;;;;;;;5.30;1.23;;;;;;;;;;7384385;19;20013;-72
2023/04/13 03:52:56;;;;;;;7.13;1.73;;;;;;;;;;7390900;19;19999;-71
2023/04/13 03:55:21;;;;;;;6.57;1.92;;;;;;;;;;7386775;19;20037;-72
2023/04/13 03:57:47;;;;;;;3.53;1.27;;;;;;;;;;7387040;19;20022;-71
2023/04/13 04:00:14;;;;;;;5.80;1.23;;;;;;;;;;7384628;19;20003;-72
2023/04/13 04:02:40;;;;;;;3.72;1.20;;;;;;;;;;7385923;19;19999;-71
2023/04/13 04:05:06;;;;;;;6.57;1.50;;;;;;;;;;7389038;19;20027;-71
2023/04/13 04:07:31;;;;;;;2.72;0.98;;;;;;;;;;7393974;19;20030;-70
2023/04/13 04:09:56;;;;;;;9.50;3.30;;;;;;;;;;7393159;19;20006;-71
2023/04/13 04:12:22;;;;;;;34.35;14.85;;;;;;;;;;7392299;19;19999;-71
2023/04/13 04:14:50;;;;;;;32.85;13.70;;;;;;;;;;7393385;19;20002;-71
2023/04/13 04:17:15;;;;;;;31.27;10.60;;;;;;;;;;7397396;19;20002;-71
2023/04/13 04:19:41;;;;;;;72.50;30.48;;;;;;;;;;7393835;19;20019;-71
2023/04/13 04:22:06;;;;;;;53.67;21.45;;;;;;;;;;7391409;19;19999;-71
2023/04/13 04:24:32;;;;;;;18.02;6.55;;;;;;;;;;7395867;19;19995;-71
2023/04/13 04:26:58;;;;;;;6.82;2.60;;;;;;;;;;7393661;19;20002;-71
2023/04/13 04:29:35;;;;;;;16.55;7.80;;;;;;;;;;7393539;19;20003;-70
2023/04/13 04:32:04;;;;;;;10.23;4.50;;;;;;;;;;7389385;19;20014;-71
2023/04/13 04:34:30;;;;;;;10.60;2.80;;;;;;;;;;7330516;19;20007;-71
2023/04/13 04:36:56;;;;;;;8.70;4.88;;;;;;;;;;7395476;19;20015;-72
2023/04/13 04:39:22;;;;;;;6.10;1.92;;;;;;;;;;7395543;19;19994;-72
2023/04/13 04:41:48;;;;;;;10.20;1.75;;;;;;;;;;7392391;19;20484;-73
2023/04/13 04:44:15;;;;;;;9.13;2.10;;;;;;;;;;7396641;19;19994;-72
2023/04/13 04:46:42;;;;;;;12.38;3.65;;;;;;;;;;7392324;19;19998;-72
2023/04/13 04:49:08;;;;;;;14.70;4.18;;;;;;;;;;7392054;19;19995;-71
2023/04/13 04:51:34;;;;;;;23.48;9.70;;;;;;;;;;7388068;19;20086;-71
2023/04/13 04:54:01;;;;;;;8.77;3.67;;;;;;;;;;7308163;19;20038;-72
2023/04/13 04:56:26;;;;;;;20.52;10.02;;;;;;;;;;7395045;19;20022;-71
2023/04/13 04:58:53;;;;;;;3.25;1.50;;;;;;;;;;7393870;19;20014;-71
2023/04/13 05:01:21;;;;;;;13.73;4.20;;;;;;;;;;7386248;19;20085;-72
2023/04/13 05:03:47;;;;;;;11.35;4.43;;;;;;;;;;7390426;19;20327;-72
2023/04/13 05:06:12;;;;;;;5.68;2.03;;;;;;;;;;7389867;19;19999;-71
2023/04/13 05:08:37;;;;;;;8.82;1.40;;;;;;;;;;7394538;19;20002;-72
2023/04/13 05:11:06;;;;;;;7.43;1.67;;;;;;;;;;7389922;19;20500;-71
2023/04/13 05:13:31;;;;;;;6.32;1.70;;;;;;;;;;7392080;19;20476;-72
2023/04/13 05:15:57;;;;;;;4.72;1.52;;;;;;;;;;7392722;19;20005;-72
2023/04/13 05:18:22;;;;;;;5.85;1.80;;;;;;;;;;7391266;19;20025;-72
2023/04/13 05:20:47;;;;;;;2.78;1.25;;;;;;;;;;7389003;19;20006;-71
2023/04/13 05:23:13;;;;;;;10.65;1.70;;;;;;;;;;7390733;19;20325;-72
2023/04/13 05:25:38;;;;;;;8.85;1.65;;;;;;;;;;7393403;19;19994;-71
2023/04/13 05:28:06;;;;;;;7.60;1.50;;;;;;;;;;7394053;19;19998;-71
2023/04/13 05:30:31;;;;;;;9.70;1.90;;;;;;;;;;7388955;19;20488;-72
2023/04/13 05:32:57;;;;;;;5.20;1.48;;;;;;;;;;7392977;19;20005;-72
2023/04/13 05:35:23;;;;;;;2.85;1.13;;;;;;;;;;7391972;19;20468;-71
2023/04/13 05:37:48;;;;;;;4.18;1.13;;;;;;;;;;7393383;19;20074;-71
2023/04/13 05:40:14;;;;;;;8.27;1.60;;;;;;;;;;7388697;19;20475;-72
2023/04/13 05:42:42;;;;;;;8.73;1.38;;;;;;;;;;7367830;19;20341;-72
2023/04/13 05:45:09;;;;;;;3.60;1.23;;;;;;;;;;7390807;19;20006;-72
2023/04/13 05:47:37;;;;;;;6.03;1.40;;;;;;;;;;7392405;19;20003;-72
2023/04/13 05:50:02;;;;;;;7.95;1.70;;;;;;;;;;7393018;19;20038;-72
2023/04/13 05:52:28;;;;;;;5.85;1.70;;;;;;;;;;7390165;19;20003;-72
2023/04/13 05:54:53;;;;;;;6.50;1.30;;;;;;;;;;7391163;19;20378;-71
2023/04/13 05:57:20;;;;;;;4.47;1.50;;;;;;;;;;7387070;19;20016;-73
2023/04/13 05:59:45;;;;;;;6.50;1.70;;;;;;;;;;7388951;19;20014;-70
2023/04/13 06:02:11;;;;;;;4.35;1.58;;;;;;;;;;7389373;19;20408;-71
2023/04/13 06:04:36;;;;;;;8.75;1.73;;;;;;;;;;7391344;19;20006;-73
2023/04/13 06:07:02;;;;;;;4.78;1.10;;;;;;;;;;7392117;19;19999;-71
2023/04/13 06:09:28;;;;;;;12.52;1.70;;;;;;;;;;7392027;19;20006;-71
2023/04/13 06:11:54;;;;;;;7.05;1.70;;;;;;;;;;7387518;19;20003;-71
2023/04/13 06:14:19;;;;;;;9.20;1.70;;;;;;;;;;7391323;19;19998;-72
2023/04/13 06:16:45;;;;;;;5.78;1.30;;;;;;;;;;7391637;19;20006;-71
2023/04/13 06:19:11;;;;;;;6.35;1.67;;;;;;;;;;7391189;19;19994;-72
2023/04/13 06:21:39;;;;;;;7.88;1.88;;;;;;;;;;7388596;19;20003;-71
2023/04/13 06:24:05;;;;;;;6.20;1.50;;;;;;;;;;7391284;19;20006;-71
2023/04/13 06:26:32;;;;;;;7.32;1.70;;;;;;;;;;7391370;19;20579;-73
2023/04/13 06:28:57;;;;;;;6.97;1.58;;;;;;;;;;7388801;19;20717;-72
2023/04/13 06:31:26;;;;;;;7.80;1.92;;;;;;;;;;7385388;19;20002;-72
2023/04/13 06:33:51;;;;;;;7.10;1.70;;;;;;;;;;7389026;19;19998;-71
2023/04/13 06:36:16;;;;;;;6.80;1.63;;;;;;;;;;7389870;19;20002;-71
2023/04/13 06:38:42;;;;;;;7.18;1.30;;;;;;;;;;7391484;19;20100;-71
2023/04/13 06:41:07;;;;;;;7.97;2.28;;;;;;;;;;7386852;19;20066;-73
2023/04/13 06:43:32;;;;;;;5.88;1.63;;;;;;;;;;7389469;19;19995;-71
2023/04/13 06:45:59;;;;;;;3.05;1.27;;;;;;;;;;7388509;19;20029;-66
2023/04/13 06:48:25;;;;;;;4.65;1.52;;;;;;;;;;7390458;19;20013;-65
2023/04/13 06:50:51;;;;;;;6.95;1.45;;;;;;;;;;7375307;19;20014;-72
2023/04/13 06:53:16;;;;;;;6.80;1.38;;;;;;;;;;7385669;19;20011;-71
2023/04/13 06:55:43;;;;;;;3.55;1.08;;;;;;;;;;7384095;19;20026;-72
2023/04/13 06:58:10;;;;;;;6.95;1.75;;;;;;;;;;7385133;19;19995;-70
2023/04/13 07:00:38;;;;;;;6.82;1.55;;;;;;;;;;7381388;19;20009;-71
2023/04/13 07:03:04;;;;;;;8.73;1.52;;;;;;;;;;7383010;19;20548;-72
2023/04/13 07:05:29;;;;;;;6.50;1.90;;;;;;;;;;7382146;19;20014;-72
2023/04/13 07:07:55;;;;;;;4.68;1.45;;;;;;;;;;7386387;19;20013;-72
2023/04/13 07:10:21;;;;;;;3.20;1.35;;;;;;;;;;7381157;19;20459;-71
2023/04/13 07:12:47;;;;;;;6.18;1.38;;;;;;;;;;7384309;19;20010;-71
2023/04/13 07:15:12;;;;;;;3.38;1.00;;;;;;;;;;7385362;19;20010;-70
2023/04/13 07:17:38;;;;;;;3.78;1.27;;;;;;;;;;7381861;19;20445;-71
2023/04/13 07:20:04;;;;;;;6.70;2.30;;;;;;;;;;7384308;19;20009;-70
2023/04/13 07:22:31;;;;;;;4.32;1.30;;;;;;;;;;7378847;19;20249;-70
2023/04/13 07:24:57;;;;;;;5.50;1.50;;;;;;;;;;7386640;19;20186;-72
2023/04/13 07:27:22;;;;;;;4.72;1.63;;;;;;;;;;7383216;19;20406;-72
2023/04/13 07:29:50;;;;;;;3.72;1.50;;;;;;;;;;7384660;19;20003;-72
2023/04/13 07:32:16;;;;;;;4.35;1.40;;;;;;;;;;7382453;19;20009;-71
2023/04/13 07:34:41;;;;;;;3.83;1.67;;;;;;;;;;7384386;19;20539;-71
2023/04/13 07:37:06;;;;;;;5.50;1.40;;;;;;;;;;7385572;19;19999;-71
2023/04/13 07:39:32;;;;;;;4.53;1.50;;;;;;;;;;7393042;19;20002;-70
2023/04/13 07:41:57;;;;;;;8.45;1.52;;;;;;;;;;7393408;19;20029;-71
2023/04/13 07:44:23;;;;;;;5.85;1.35;;;;;;;;;;7394477;19;19998;-71
2023/04/13 07:46:48;;;;;;;5.25;1.65;;;;;;;;;;7396339;19;19994;-72
2023/04/13 07:49:13;;;;;;;5.30;1.58;;;;;;;;;;7397115;19;19998;-72
2023/04/13 07:51:39;;;;;;;6.68;1.35;;;;;;;;;;7392417;19;20066;-71
2023/04/13 07:54:04;;;;;;;5.97;2.08;;;;;;;;;;7395534;19;20005;-71
2023/04/13 07:56:32;;;;;;;1.90;1.20;;;;;;;;;;7389127;19;20067;-71
2023/04/13 07:58:57;;;;;;;4.10;1.48;;;;;;;;;;7394445;19;20058;-72
2023/04/13 08:01:23;;;;;;;6.97;2.03;;;;;;;;;;7390389;19;20041;-71
2023/04/13 08:03:48;;;;;;;4.38;1.35;;;;;;;;;;7392338;19;20488;-72
2023/04/13 08:06:13;;;;;;;8.32;2.00;;;;;;;;;;7391548;19;20368;-72
2023/04/13 08:08:39;;;;;;;5.38;1.52;;;;;;;;;;7395142;19;20007;-72
2023/04/13 08:11:05;;;;;;;4.32;1.33;;;;;;;;;;7391610;19;20461;-72
2023/04/13 08:13:31;;;;;;;8.57;1.90;;;;;;;;;;7395428;19;20019;-72
2023/04/13 08:15:58;;;;;;;8.35;1.52;;;;;;;;;;7393161;19;20597;-72
2023/04/13 08:18:25;;;;;;;8.18;1.80;;;;;;;;;;7395955;19;20003;-71
2023/04/13 08:20:51;;;;;;;6.45;1.70;;;;;;;;;;7391696;19;20532;-72
2023/04/13 08:23:17;;;;;;;5.35;1.60;;;;;;;;;;7393109;19;20130;-72
2023/04/13 08:25:43;;;;;;;4.80;1.60;;;;;;;;;;7393245;19;20105;-70
2023/04/13 08:28:08;;;;;;;4.38;1.27;;;;;;;;;;7394637;19;20023;-72
2023/04/13 08:30:34;;;;;;;6.35;1.50;;;;;;;;;;7393481;19;20007;-72
2023/04/13 08:33:03;;;;;;;4.53;1.40;;;;;;;;;;7392416;19;20058;-72
2023/04/13 08:35:28;;;;;;;4.88;1.52;;;;;;;;;;7395312;19;20002;-72
2023/04/13 08:37:54;;;;;;;4.75;1.60;;;;;;;;;;7395384;19;20003;-73
2023/04/13 08:40:20;;;;;;;5.95;1.33;;;;;;;;;;7388629;19;20006;-73
2023/04/13 08:42:46;;;;;;;6.15;1.75;;;;;;;;;;7391768;19;20525;-72
2023/04/13 08:45:12;;;;;;;4.25;1.42;;;;;;;;;;7393584;19;20041;-72
2023/04/13 08:47:39;;;;;;;3.42;1.50;;;;;;;;;;7394507;19;19998;-73
2023/04/13 08:50:06;;;;;;;3.22;1.42;;;;;;;;;;7394128;19;20393;-72
2023/04/13 08:52:36;;;;;;;4.60;1.45;;;;;;;;;;7389960;19;20016;-72
2023/04/13 08:55:04;;;;;;;3.17;1.38;;;;;;;;;;7377117;19;20441;-70
2023/04/13 08:57:30;;;;;;;4.40;1.70;;;;;;;;;;7387372;19;20007;-71
2023/04/13 08:59:57;;;;;;;6.40;1.55;;;;;;;;;;7386228;19;20017;-70
2023/04/13 09:02:27;;;;;;;4.38;1.10;;;;;;;;;;7386570;19;19998;-72
2023/04/13 09:04:54;;;;;;;2.05;0.75;;;;;;;;;;7387726;19;19998;-70
2023/04/13 09:07:25;;;;;;;6.40;1.52;;;;;;;;;;7388461;19;20044;-71
2023/04/13 09:09:55;;;;;;;3.35;1.52;;;;;;;;;;7386037;19;20083;-70
2023/04/13 09:12:20;;;;;;;4.18;1.50;;;;;;;;;;7389015;19;20006;-71
2023/04/13 09:14:49;;;;;;;4.15;1.20;;;;;;;;;;7390241;19;20009;-71
2023/04/13 09:17:26;;;;;;;3.88;1.50;;;;;;;;;;7388589;19;20413;-71
2023/04/13 09:19:52;;;;;;;4.18;1.52;;;;;;;;;;7387753;19;20002;-70
2023/04/13 09:22:17;;;;;;;2.88;1.00;;;;;;;;;;7386524;19;19995;-71
2023/04/13 09:24:43;;;;;;;4.30;1.10;;;;;;;;;;7387598;19;20003;-71
2023/04/13 09:27:22;;;;;;;3.70;1.27;;;;;;;;;;7387882;19;20042;-71
2023/04/13 09:29:53;;;;;;;2.70;1.23;;;;;;;;;;7389129;19;20002;-71
2023/04/13 09:32:23;;;;;;;3.03;1.10;;;;;;;;;;7385605;19;20525;-72
2023/04/13 09:35:03;;;;;;;5.88;1.40;;;;;;;;;;7387139;19;20006;-73
2023/04/13 09:37:33;;;;;;;2.53;1.10;;;;;;;;;;7389414;19;19998;-71
2023/04/13 09:40:09;;;;;;;5.72;1.35;;;;;;;;;;7384723;19;20492;-71
2023/04/13 09:42:35;;;;;;;2.25;1.13;;;;;;;;;;7388000;19;20023;-71
2023/04/13 09:45:01;;;;;;;2.40;1.00;;;;;;;;;;7387590;19;20464;-70
2023/04/13 09:47:39;;;;;;;5.13;1.35;;;;;;;;;;7387930;19;19995;-71
2023/04/13 09:50:22;;;;;;;3.28;1.38;;;;;;;;;;7385130;19;20017;-71
2023/04/13 09:53:01;;;;;;;6.60;1.23;;;;;;;;;;7387747;19;20006;-70
2023/04/13 09:55:28;;;;;;;2.92;1.20;;;;;;;;;;7389764;19;20006;-73
2023/04/13 09:57:53;;;;;;;2.75;1.13;;;;;;;;;;7380629;19;20011;-74
2023/04/13 10:00:20;;;;;;;3.47;1.38;;;;;;;;;;7388244;19;20006;-73
2023/04/13 10:02:52;;;;;;;4.28;1.67;;;;;;;;;;7387073;19;20006;-73
2023/04/13 10:05:18;;;;;;;1.50;1.10;;;;;;;;;;7390388;19;19998;-71
2023/04/13 10:07:45;;;;;;;2.80;1.05;;;;;;;;;;7387846;19;20019;-72
2023/04/13 10:10:11;;;;;;;2.90;1.35;;;;;;;;;;7383493;19;20003;-69
2023/04/13 10:12:42;;;;;;;3.60;1.30;;;;;;;;;;7387446;19;19999;-65
2023/04/13 10:15:23;;;;;;;3.13;1.33;;;;;;;;;;7388331;19;20010;-64
2023/04/13 10:18:22;;;;;;;3.97;1.23;;;;;;;;;;7386778;19;20333;-73
2023/04/13 10:20:49;;;;;;;3.13;1.20;;;;;;;;;;7384851;19;20022;-76
2023/04/13 10:23:15;;;;;;;3.72;1.48;;;;;;;;;;7389497;19;20002;-76
2023/04/13 10:25:51;;;;;;;3.53;1.13;;;;;;;;;;7391314;19;20010;-72
2023/04/13 10:28:17;;;;;;;2.30;1.27;;;;;;;;;;7387361;19;19998;-75
2023/04/13 10:30:50;;;;;;;2.60;1.08;;;;;;;;;;7392501;19;20007;-76
2023/04/13 10:33:15;;;;;;;3.63;1.23;;;;;;;;;;7391579;19;20003;-75
2023/04/13 10:35:41;;;;;;;4.60;1.73;;;;;;;;;;7384743;19;20010;-76
2023/04/13 10:38:10;;;;;;;2.75;1.20;;;;;;;;;;7384491;19;20562;-75
2023/04/13 10:40:46;;;;;;;4.80;1.38;;;;;;;;;;7384951;19;20012;-75
2023/04/13 10:43:11;;;;;;;2.63;1.20;;;;;;;;;;7381896;19;20009;-75
2023/04/13 10:45:37;;;;;;;5.30;1.40;;;;;;;;;;7387141;19;20002;-75
2023/04/13 10:48:03;;;;;;;4.28;1.45;;;;;;;;;;7389058;19;20456;-75
2023/04/13 10:50:28;;;;;;;4.03;1.42;;;;;;;;;;7386724;19;20038;-74
2023/04/13 10:53:04;;;;;;;4.43;1.35;;;;;;;;;;7388034;19;20356;-74
2023/04/13 10:55:31;;;;;;;6.32;1.50;;;;;;;;;;7388199;19;20082;-74
2023/04/13 10:58:00;;;;;;;2.15;1.13;;;;;;;;;;7387561;19;20006;-75
2023/04/13 11:00:29;;;;;;;2.00;1.20;;;;;;;;;;7387345;19;20052;-75
2023/04/13 11:02:56;;;;;;;3.45;1.27;;;;;;;;;;7386887;19;20054;-74
2023/04/13 11:05:22;;;;;;;2.47;1.17;;;;;;;;;;7386056;19;20505;-75
2023/04/13 11:07:49;;;;;;;2.47;1.20;;;;;;;;;;7387715;19;20055;-75
2023/04/13 11:10:15;;;;;;;2.47;1.42;;;;;;;;;;7387001;19;20016;-75
2023/04/13 11:12:51;;;;;;;1.67;1.30;;;;;;;;;;7387461;19;20436;-75
2023/04/13 11:15:24;;;;;;;3.17;1.08;;;;;;;;;;7393408;19;20041;-75
2023/04/13 11:17:55;;;;;;;3.50;1.23;;;;;;;;;;7394251;19;20020;-75
2023/04/13 11:20:33;;;;;;;2.13;1.10;;;;;;;;;;7391987;19;20045;-76
2023/04/13 11:23:02;;;;;;;3.28;1.23;;;;;;;;;;7393347;19;19998;-76
2023/04/13 11:25:27;;;;;;;2.38;1.15;;;;;;;;;;7395359;19;20103;-76
2023/04/13 11:28:00;;;;;;;4.47;1.42;;;;;;;;;;7395432;19;20464;-76
2023/04/13 11:30:26;;;;;;;1.63;1.10;;;;;;;;;;7395000;19;20013;-65
2023/04/13 11:32:52;;;;;;;4.60;1.30;;;;;;;;;;7382852;19;20006;-67
2023/04/13 11:35:19;;;;;;;4.05;1.60;;;;;;;;;;7394185;19;20010;-65
2023/04/13 11:37:51;;;;;;;3.10;1.10;;;;;;;;;;7390906;19;20477;-64
2023/04/13 11:40:21;;;;;;;3.10;1.15;;;;;;;;;;7389189;19;20460;-63
2023/04/13 11:42:49;;;;;;;4.70;1.13;;;;;;;;;;7387423;19;20008;-64
2023/04/13 11:45:15;;;;;;;2.60;1.00;;;;;;;;;;7390744;19;20066;-64
2023/04/13 11:47:41;;;;;;;1.45;1.00;;;;;;;;;;7388716;19;20013;-65
2023/04/13 11:50:08;;;;;;;5.07;1.33;;;;;;;;;;7392088;19;20061;-63
2023/04/13 11:52:34;;;;;;;2.47;1.17;;;;;;;;;;7391888;19;20022;-63
2023/04/13 11:55:03;;;;;;;2.38;1.10;;;;;;;;;;7393320;19;20023;-63
2023/04/13 11:57:28;;;;;;;3.17;1.08;;;;;;;;;;7390478;19;20030;-63
2023/04/13 11:59:54;;;;;;;5.53;1.33;;;;;;;;;;7393515;19;20304;-63
2023/04/13 12:02:27;;;;;;;2.70;1.40;;;;;;;;;;7388905;19;20002;-63
2023/04/13 12:04:53;;;;;;;3.97;1.42;;;;;;;;;;7386405;19;20322;-64
2023/04/13 12:07:19;;;;;;;3.15;1.17;;;;;;;;;;7386811;19;20011;-64
2023/04/13 12:09:49;;;;;;;4.18;1.38;;;;;;;;;;7382098;19;20015;-64
2023/04/13 12:12:20;;;;;;;3.88;1.27;;;;;;;;;;7388065;19;20003;-64
2023/04/13 12:14:56;;;;;;;2.83;1.15;;;;;;;;;;7387190;19;20077;-64
2023/04/13 12:17:28;;;;;;;2.15;1.13;;;;;;;;;;7387722;19;20013;-64
2023/04/13 12:19:55;;;;;;;4.13;1.33;;;;;;;;;;7388183;19;20015;-63
2023/04/13 12:22:20;;;;;;;2.58;1.23;;;;;;;;;;7383388;19;20872;-64
2023/04/13 12:24:46;;;;;;;2.40;1.20;;;;;;;;;;7385296;19;20291;-64
2023/04/13 12:27:11;;;;;;;2.45;1.23;;;;;;;;;;7383204;19;20474;-63
2023/04/13 12:29:40;;;;;;;3.90;1.38;;;;;;;;;;7383065;19;20686;-63
2023/04/13 12:32:13;;;;;;;6.40;1.42;;;;;;;;;;7386801;19;20707;-63
2023/04/13 12:34:40;;;;;;;5.85;1.75;;;;;;;;;;7393573;19;20463;-63
2023/04/13 12:37:06;;;;;;;6.53;1.70;;;;;;;;;;7388919;19;20369;-63
2023/04/13 12:39:31;;;;;;;1.92;0.93;;;;;;;;;;7386777;19;20035;-64
2023/04/13 12:41:57;;;;;;;3.65;1.20;;;;;;;;;;7384063;19;20034;-64
2023/04/13 12:44:22;;;;;;;8.15;2.10;;;;;;;;;;7391252;19;20010;-63
2023/04/13 12:46:47;;;;;;;4.85;1.60;;;;;;;;;;7388030;19;20002;-63
2023/04/13 12:49:13;;;;;;;2.97;1.20;;;;;;;;;;7387442;19;20007;-63
2023/04/13 12:51:38;;;;;;;3.25;1.30;;;;;;;;;;7389125;19;20018;-63
2023/04/13 12:54:07;;;;;;;4.03;1.20;;;;;;;;;;7390222;19;20003;-63
2023/04/13 12:56:33;;;;;;;2.88;1.02;;;;;;;;;;7390083;19;20038;-63
2023/04/13 12:58:58;;;;;;;2.28;1.02;;;;;;;;;;7389998;19;20007;-63
2023/04/13 13:01:24;;;;;;;4.68;1.25;;;;;;;;;;7385717;19;20034;-63
2023/04/13 13:03:49;;;;;;;3.33;1.13;;;;;;;;;;7383861;19;20014;-63
2023/04/13 13:06:15;;;;;;;2.45;0.73;;;;;;;;;;7388671;19;20018;-64
2023/04/13 13:08:40;;;;;;;1.90;1.10;;;;;;;;;;7390135;19;20002;-63
2023/04/13 13:11:07;;;;;;;1.88;1.10;;;;;;;;;;7382034;19;20412;-63
2023/04/13 13:13:32;;;;;;;1.25;0.77;;;;;;;;;;7390590;19;20349;-74
2023/04/13 13:15:57;;;;;;;2.88;0.70;;;;;;;;;;7388700;19;20487;-76
2023/04/13 13:18:23;;;;;;;1.33;0.57;;;;;;;;;;7389638;19;20030;-76
2023/04/13 13:20:52;;;;;;;1.95;0.75;;;;;;;;;;7388803;19;20006;-76
2023/04/13 13:23:18;;;;;;;3.17;0.90;;;;;;;;;;7386102;19;20019;-75
2023/04/13 13:25:44;;;;;;;3.65;0.90;;;;;;;;;;7392194;19;20002;-76
2023/04/13 13:28:10;;;;;;;4.75;1.27;;;;;;;;;;7387415;19;20006;-77
2023/04/13 13:30:36;;;;;;;3.90;0.82;;;;;;;;;;7388332;19;20002;-77
2023/04/13 13:33:02;;;;;;;2.13;0.82;;;;;;;;;;7383410;19;20009;-76
2023/04/13 13:35:29;;;;;;;1.33;0.47;;;;;;;;;;7386257;19;19998;-76
2023/04/13 13:37:54;;;;;;;1.88;1.00;;;;;;;;;;7388352;19;20371;-75
2023/04/13 13:40:20;;;;;;;1.92;1.00;;;;;;;;;;7387828;19;20058;-77
2023/04/13 13:42:45;;;;;;;1.33;0.77;;;;;;;;;;7387441;19;19998;-75
2023/04/13 13:45:10;;;;;;;3.63;0.95;;;;;;;;;;7386780;19;20033;-74
2023/04/13 13:47:36;;;;;;;1.38;0.63;;;;;;;;;;7385895;19;20014;-73
2023/04/13 13:50:01;;;;;;;2.08;1.00;;;;;;;;;;7390580;19;19999;-73
2023/04/13 13:52:27;;;;;;;2.75;0.82;;;;;;;;;;7381430;19;20324;-71
2023/04/13 13:54:53;;;;;;;2.60;0.93;;;;;;;;;;7390123;19;19998;-75
2023/04/13 13:57:18;;;;;;;5.00;1.17;;;;;;;;;;7389017;19;20416;-73
2023/04/13 13:59:44;;;;;;;1.80;0.90;;;;;;;;;;7390116;19;20023;-74
2023/04/13 14:02:10;;;;;;;0.88;0.55;;;;;;;;;;7383889;19;20002;-80
2023/04/13 14:04:35;;;;;;;3.60;1.10;;;;;;;;;;7391204;19;20006;-79
2023/04/13 14:07:01;;;;;;;2.05;0.98;;;;;;;;;;7389801;19;20010;-77
2023/04/13 14:09:26;;;;;;;1.10;0.80;;;;;;;;;;7388490;19;20009;-76
2023/04/13 14:11:52;;;;;;;6.10;1.13;;;;;;;;;;7386780;19;20022;-75
2023/04/13 14:14:17;;;;;;;3.22;1.05;;;;;;;;;;7388579;19;20380;-75
2023/04/13 14:16:42;;;;;;;1.85;0.68;;;;;;;;;;7388215;19;20399;-75
2023/04/13 14:19:07;;;;;;;0.82;0.77;;;;;;;;;;7386478;19;19999;-74
2023/04/13 14:21:33;;;;;;;3.20;0.77;;;;;;;;;;7387574;19;20006;-78
2023/04/13 14:23:59;;;;;;;2.35;1.00;;;;;;;;;;7390463;19;20006;-74
2023/04/13 14:26:24;;;;;;;1.70;0.55;;;;;;;;;;7388225;19;20013;-74
2023/04/13 14:28:50;;;;;;;1.38;0.88;;;;;;;;;;7387656;19;20025;-76
2023/04/13 14:31:15;;;;;;;2.70;0.90;;;;;;;;;;7384676;19;20492;-76
2023/04/13 14:33:43;;;;;;;1.48;0.55;;;;;;;;;;7388672;19;19999;-74
2023/04/13 14:36:13;;;;;;;1.15;0.57;;;;;;;;;;7384890;19;20006;-74
2023/04/13 14:38:39;;;;;;;3.60;1.13;;;;;;;;;;7389089;19;20410;-74
2023/04/13 14:41:04;;;;;;;2.63;1.10;;;;;;;;;;7383562;19;20021;-76
2023/04/13 14:43:30;;;;;;;1.77;0.80;;;;;;;;;;7387183;19;20013;-75